sensor_id;sensor_type;location;lat;lon;timestamp;P1;durP1;ratioP1;P2;durP2;ratioP2
13102;SDS011;52970;46.752;17.108;2022-09-28T00:03:39;4.45;;;3.28;;
13102;SDS011;52970;46.752;17.108;2022-09-28T00:06:05;4.15;;;3.00;;
13102;SDS011;52970;46.752;17.108;2022-09-28T00:08:31;5.40;;;3.70;;
13102;SDS011;52970;46.752;17.108;2022-09-28T00:10:57;3.58;;;3.17;;
13102;SDS011;52970;46.752;17.108;2022-09-28T00:13:22;5.13;;;3.33;;
13102;SDS011;52970;46.752;17.108;2022-09-28T00:15:57;5.82;;;3.33;;
13102;SDS011;52970;46.752;17.108;2022-09-28T00:18:22;7.50;;;3.50;;
13102;SDS011;52970;46.752;17.108;2022-09-28T00:20:48;4.60;;;3.88;;
13102;SDS011;52970;46.752;17.108;2022-09-28T00:23:23;4.93;;;3.72;;
13102;SDS011;52970;46.752;17.108;2022-09-28T00:25:48;7.95;;;4.22;;
13102;SDS011;52970;46.752;17.108;2022-09-28T00:28:13;6.28;;;3.55;;
13102;SDS011;52970;46.752;17.108;2022-09-28T00:30:38;6.78;;;3.38;;
13102;SDS011;52970;46.752;17.108;2022-09-28T00:33:04;5.03;;;3.53;;
13102;SDS011;52970;46.752;17.108;2022-09-28T00:35:29;3.72;;;3.42;;
13102;SDS011;52970;46.752;17.108;2022-09-28T00:37:55;5.97;;;3.63;;
13102;SDS011;52970;46.752;17.108;2022-09-28T00:40:20;4.40;;;3.80;;
13102;SDS011;52970;46.752;17.108;2022-09-28T00:42:45;4.38;;;3.63;;
13102;SDS011;52970;46.752;17.108;2022-09-28T00:45:10;5.35;;;3.10;;
13102;SDS011;52970;46.752;17.108;2022-09-28T00:47:42;5.20;;;3.10;;
13102;SDS011;52970;46.752;17.108;2022-09-28T00:50:26;8.05;;;3.47;;
13102;SDS011;52970;46.752;17.108;2022-09-28T00:52:54;6.35;;;3.40;;
13102;SDS011;52970;46.752;17.108;2022-09-28T00:55:25;4.60;;;3.45;;
13102;SDS011;52970;46.752;17.108;2022-09-28T00:57:53;4.18;;;3.25;;
13102;SDS011;52970;46.752;17.108;2022-09-28T01:00:21;5.55;;;3.22;;
13102;SDS011;52970;46.752;17.108;2022-09-28T01:02:46;5.60;;;3.03;;
13102;SDS011;52970;46.752;17.108;2022-09-28T01:05:12;5.03;;;3.53;;
13102;SDS011;52970;46.752;17.108;2022-09-28T01:07:38;7.32;;;3.00;;
13102;SDS011;52970;46.752;17.108;2022-09-28T01:10:03;5.53;;;3.70;;
13102;SDS011;52970;46.752;17.108;2022-09-28T01:12:29;3.55;;;2.80;;
13102;SDS011;52970;46.752;17.108;2022-09-28T01:14:54;3.38;;;3.08;;
13102;SDS011;52970;46.752;17.108;2022-09-28T01:27:43;3.05;;;2.78;;
13102;SDS011;52970;46.752;17.108;2022-09-28T01:30:15;2.97;;;2.50;;
13102;SDS011;52970;46.752;17.108;2022-09-28T01:32:46;3.20;;;2.70;;
13102;SDS011;52970;46.752;17.108;2022-09-28T01:35:19;3.20;;;2.90;;
13102;SDS011;52970;46.752;17.108;2022-09-28T01:40:27;3.22;;;2.97;;
13102;SDS011;52970;46.752;17.108;2022-09-28T01:43:01;4.60;;;3.00;;
13102;SDS011;52970;46.752;17.108;2022-09-28T01:45:29;3.30;;;3.00;;
13102;SDS011;52970;46.752;17.108;2022-09-28T01:47:57;3.97;;;2.60;;
13102;SDS011;52970;46.752;17.108;2022-09-28T01:50:24;3.65;;;3.00;;
13102;SDS011;52970;46.752;17.108;2022-09-28T01:52:52;3.95;;;3.00;;
13102;SDS011;52970;46.752;17.108;2022-09-28T01:55:28;3.95;;;2.40;;
13102;SDS011;52970;46.752;17.108;2022-09-28T01:58:02;4.07;;;3.05;;
13102;SDS011;52970;46.752;17.108;2022-09-28T02:00:29;4.32;;;3.00;;
13102;SDS011;52970;46.752;17.108;2022-09-28T02:03:04;6.60;;;3.17;;
13102;SDS011;52970;46.752;17.108;2022-09-28T02:05:37;5.93;;;3.03;;
13102;SDS011;52970;46.752;17.108;2022-09-28T02:10:34;8.82;;;4.00;;
13102;SDS011;52970;46.752;17.108;2022-09-28T02:13:14;4.47;;;3.30;;
13102;SDS011;52970;46.752;17.108;2022-09-28T02:15:50;6.88;;;4.00;;
13102;SDS011;52970;46.752;17.108;2022-09-28T02:18:17;6.88;;;3.20;;
13102;SDS011;52970;46.752;17.108;2022-09-28T02:20:46;8.55;;;4.25;;
13102;SDS011;52970;46.752;17.108;2022-09-28T02:23:12;9.50;;;3.90;;
13102;SDS011;52970;46.752;17.108;2022-09-28T02:25:46;8.95;;;4.05;;
13102;SDS011;52970;46.752;17.108;2022-09-28T02:28:13;7.38;;;4.03;;
13102;SDS011;52970;46.752;17.108;2022-09-28T02:30:40;8.52;;;4.10;;
13102;SDS011;52970;46.752;17.108;2022-09-28T02:33:13;9.48;;;4.22;;
13102;SDS011;52970;46.752;17.108;2022-09-28T02:35:40;8.13;;;4.18;;
13102;SDS011;52970;46.752;17.108;2022-09-28T02:43:54;10.00;;;3.88;;
13102;SDS011;52970;46.752;17.108;2022-09-28T03:09:20;8.65;;;3.75;;
13102;SDS011;52970;46.752;17.108;2022-09-28T03:11:48;5.35;;;3.45;;
13102;SDS011;52970;46.752;17.108;2022-09-28T03:14:15;6.45;;;3.83;;
13102;SDS011;52970;46.752;17.108;2022-09-28T03:16:44;7.38;;;3.50;;
13102;SDS011;52970;46.752;17.108;2022-09-28T03:19:10;7.00;;;3.45;;
13102;SDS011;52970;46.752;17.108;2022-09-28T03:21:36;5.57;;;3.65;;
13102;SDS011;52970;46.752;17.108;2022-09-28T03:24:01;6.03;;;3.45;;
13102;SDS011;52970;46.752;17.108;2022-09-28T03:26:28;4.03;;;3.17;;
13102;SDS011;52970;46.752;17.108;2022-09-28T03:28:53;8.88;;;3.70;;
13102;SDS011;52970;46.752;17.108;2022-09-28T03:31:19;8.15;;;3.90;;
13102;SDS011;52970;46.752;17.108;2022-09-28T03:33:44;7.07;;;3.50;;
13102;SDS011;52970;46.752;17.108;2022-09-28T03:36:09;5.13;;;3.45;;
13102;SDS011;52970;46.752;17.108;2022-09-28T03:38:34;5.03;;;3.38;;
13102;SDS011;52970;46.752;17.108;2022-09-28T03:41:00;5.28;;;3.28;;
13102;SDS011;52970;46.752;17.108;2022-09-28T03:43:25;4.25;;;2.90;;
13102;SDS011;52970;46.752;17.108;2022-09-28T03:45:52;4.13;;;2.72;;
13102;SDS011;52970;46.752;17.108;2022-09-28T03:48:19;3.50;;;2.97;;
13102;SDS011;52970;46.752;17.108;2022-09-28T03:50:44;4.47;;;3.00;;
13102;SDS011;52970;46.752;17.108;2022-09-28T03:53:10;3.78;;;3.22;;
13102;SDS011;52970;46.752;17.108;2022-09-28T03:55:35;6.18;;;3.35;;
13102;SDS011;52970;46.752;17.108;2022-09-28T03:58:02;4.13;;;3.25;;
13102;SDS011;52970;46.752;17.108;2022-09-28T04:00:27;3.55;;;3.25;;
13102;SDS011;52970;46.752;17.108;2022-09-28T04:02:52;4.70;;;3.28;;
13102;SDS011;52970;46.752;17.108;2022-09-28T04:05:18;5.03;;;3.40;;
13102;SDS011;52970;46.752;17.108;2022-09-28T04:07:43;3.95;;;2.88;;
13102;SDS011;52970;46.752;17.108;2022-09-28T04:10:08;3.33;;;2.97;;
13102;SDS011;52970;46.752;17.108;2022-09-28T04:12:33;2.90;;;2.70;;
13102;SDS011;52970;46.752;17.108;2022-09-28T04:14:59;4.93;;;3.38;;
13102;SDS011;52970;46.752;17.108;2022-09-28T04:17:24;3.33;;;3.03;;
13102;SDS011;52970;46.752;17.108;2022-09-28T04:19:49;5.65;;;3.53;;
13102;SDS011;52970;46.752;17.108;2022-09-28T04:22:14;4.22;;;3.20;;
13102;SDS011;52970;46.752;17.108;2022-09-28T04:24:40;5.68;;;3.20;;
13102;SDS011;52970;46.752;17.108;2022-09-28T04:27:07;6.80;;;3.10;;
13102;SDS011;52970;46.752;17.108;2022-09-28T04:29:51;3.58;;;2.90;;
13102;SDS011;52970;46.752;17.108;2022-09-28T04:32:16;5.15;;;3.30;;
13102;SDS011;52970;46.752;17.108;2022-09-28T04:34:42;3.30;;;2.90;;
13102;SDS011;52970;46.752;17.108;2022-09-28T04:37:07;3.53;;;3.30;;
13102;SDS011;52970;46.752;17.108;2022-09-28T04:39:32;3.28;;;3.00;;
13102;SDS011;52970;46.752;17.108;2022-09-28T04:41:58;3.80;;;3.00;;
13102;SDS011;52970;46.752;17.108;2022-09-28T04:44:23;3.30;;;3.00;;
13102;SDS011;52970;46.752;17.108;2022-09-28T04:46:49;3.80;;;3.08;;
13102;SDS011;52970;46.752;17.108;2022-09-28T04:49:14;4.88;;;2.88;;
13102;SDS011;52970;46.752;17.108;2022-09-28T04:51:39;3.85;;;3.08;;
13102;SDS011;52970;46.752;17.108;2022-09-28T04:54:04;4.00;;;3.10;;
13102;SDS011;52970;46.752;17.108;2022-09-28T04:56:30;4.13;;;2.83;;
13102;SDS011;52970;46.752;17.108;2022-09-28T04:58:55;4.63;;;3.05;;
13102;SDS011;52970;46.752;17.108;2022-09-28T05:01:20;3.80;;;3.20;;
13102;SDS011;52970;46.752;17.108;2022-09-28T05:03:48;2.85;;;2.65;;
13102;SDS011;52970;46.752;17.108;2022-09-28T05:06:14;3.33;;;2.60;;
13102;SDS011;52970;46.752;17.108;2022-09-28T05:08:40;6.40;;;2.85;;
13102;SDS011;52970;46.752;17.108;2022-09-28T05:11:06;4.22;;;2.45;;
13102;SDS011;52970;46.752;17.108;2022-09-28T05:13:32;5.05;;;2.80;;
13102;SDS011;52970;46.752;17.108;2022-09-28T05:16:00;4.88;;;3.22;;
13102;SDS011;52970;46.752;17.108;2022-09-28T05:18:25;3.40;;;2.92;;
13102;SDS011;52970;46.752;17.108;2022-09-28T05:20:50;3.00;;;2.70;;
13102;SDS011;52970;46.752;17.108;2022-09-28T05:23:16;2.97;;;2.72;;
13102;SDS011;52970;46.752;17.108;2022-09-28T05:25:41;2.67;;;2.47;;
13102;SDS011;52970;46.752;17.108;2022-09-28T05:28:07;2.78;;;2.58;;
13102;SDS011;52970;46.752;17.108;2022-09-28T05:30:33;2.67;;;2.47;;
13102;SDS011;52970;46.752;17.108;2022-09-28T05:32:58;3.33;;;2.25;;
13102;SDS011;52970;46.752;17.108;2022-09-28T05:35:24;3.55;;;2.38;;
13102;SDS011;52970;46.752;17.108;2022-09-28T05:37:49;6.45;;;2.53;;
13102;SDS011;52970;46.752;17.108;2022-09-28T05:40:15;7.60;;;2.50;;
13102;SDS011;52970;46.752;17.108;2022-09-28T05:42:40;5.45;;;2.83;;
13102;SDS011;52970;46.752;17.108;2022-09-28T05:45:06;4.28;;;2.40;;
13102;SDS011;52970;46.752;17.108;2022-09-28T05:47:35;2.65;;;2.05;;
13102;SDS011;52970;46.752;17.108;2022-09-28T05:50:01;8.40;;;2.88;;
13102;SDS011;52970;46.752;17.108;2022-09-28T05:52:26;7.55;;;3.25;;
13102;SDS011;52970;46.752;17.108;2022-09-28T05:54:51;6.32;;;3.10;;
13102;SDS011;52970;46.752;17.108;2022-09-28T05:57:17;6.50;;;4.32;;
13102;SDS011;52970;46.752;17.108;2022-09-28T05:59:42;7.65;;;4.45;;
13102;SDS011;52970;46.752;17.108;2022-09-28T06:02:08;9.35;;;3.90;;
13102;SDS011;52970;46.752;17.108;2022-09-28T06:04:34;5.20;;;3.25;;
13102;SDS011;52970;46.752;17.108;2022-09-28T06:06:59;4.05;;;3.03;;
13102;SDS011;52970;46.752;17.108;2022-09-28T06:09:24;6.88;;;2.92;;
13102;SDS011;52970;46.752;17.108;2022-09-28T06:11:50;2.92;;;2.30;;
13102;SDS011;52970;46.752;17.108;2022-09-28T06:14:15;2.75;;;2.55;;
13102;SDS011;52970;46.752;17.108;2022-09-28T06:16:41;3.92;;;2.67;;
13102;SDS011;52970;46.752;17.108;2022-09-28T06:19:07;3.60;;;2.83;;
13102;SDS011;52970;46.752;17.108;2022-09-28T06:21:32;4.90;;;2.60;;
13102;SDS011;52970;46.752;17.108;2022-09-28T06:23:57;2.72;;;2.33;;
13102;SDS011;52970;46.752;17.108;2022-09-28T06:26:23;3.08;;;2.17;;
13102;SDS011;52970;46.752;17.108;2022-09-28T06:28:48;3.00;;;2.60;;
13102;SDS011;52970;46.752;17.108;2022-09-28T06:31:13;2.85;;;2.65;;
13102;SDS011;52970;46.752;17.108;2022-09-28T06:33:39;2.85;;;2.58;;
13102;SDS011;52970;46.752;17.108;2022-09-28T06:36:06;2.70;;;2.35;;
13102;SDS011;52970;46.752;17.108;2022-09-28T06:38:31;4.95;;;2.90;;
13102;SDS011;52970;46.752;17.108;2022-09-28T06:40:57;3.00;;;2.80;;
13102;SDS011;52970;46.752;17.108;2022-09-28T06:43:22;2.70;;;2.50;;
13102;SDS011;52970;46.752;17.108;2022-09-28T06:45:51;2.97;;;2.78;;
13102;SDS011;52970;46.752;17.108;2022-09-28T06:48:17;3.72;;;2.90;;
13102;SDS011;52970;46.752;17.108;2022-09-28T06:50:42;5.10;;;3.15;;
13102;SDS011;52970;46.752;17.108;2022-09-28T06:53:09;3.65;;;3.33;;
13102;SDS011;52970;46.752;17.108;2022-09-28T06:55:38;3.80;;;3.50;;
13102;SDS011;52970;46.752;17.108;2022-09-28T06:58:04;6.10;;;3.00;;
13102;SDS011;52970;46.752;17.108;2022-09-28T07:00:31;3.63;;;2.83;;
13102;SDS011;52970;46.752;17.108;2022-09-28T07:02:58;4.00;;;3.60;;
13102;SDS011;52970;46.752;17.108;2022-09-28T07:05:23;3.42;;;3.10;;
13102;SDS011;52970;46.752;17.108;2022-09-28T07:07:55;5.65;;;3.25;;
13102;SDS011;52970;46.752;17.108;2022-09-28T07:10:22;3.50;;;3.20;;
13102;SDS011;52970;46.752;17.108;2022-09-28T07:12:48;3.85;;;3.40;;
13102;SDS011;52970;46.752;17.108;2022-09-28T07:15:13;3.72;;;3.20;;
13102;SDS011;52970;46.752;17.108;2022-09-28T07:17:38;5.32;;;3.13;;
13102;SDS011;52970;46.752;17.108;2022-09-28T07:20:04;3.83;;;3.10;;
13102;SDS011;52970;46.752;17.108;2022-09-28T07:22:29;3.78;;;3.08;;
13102;SDS011;52970;46.752;17.108;2022-09-28T07:24:55;3.85;;;3.33;;
13102;SDS011;52970;46.752;17.108;2022-09-28T07:27:21;3.08;;;2.83;;
13102;SDS011;52970;46.752;17.108;2022-09-28T07:29:47;3.10;;;2.80;;
13102;SDS011;52970;46.752;17.108;2022-09-28T07:32:12;4.97;;;2.75;;
13102;SDS011;52970;46.752;17.108;2022-09-28T07:34:37;3.17;;;2.65;;
13102;SDS011;52970;46.752;17.108;2022-09-28T07:37:11;3.72;;;2.50;;
13102;SDS011;52970;46.752;17.108;2022-09-28T07:39:37;3.50;;;2.53;;
13102;SDS011;52970;46.752;17.108;2022-09-28T07:42:21;2.30;;;2.10;;
13102;SDS011;52970;46.752;17.108;2022-09-28T07:44:46;2.40;;;2.20;;
13102;SDS011;52970;46.752;17.108;2022-09-28T07:47:11;2.60;;;2.15;;
13102;SDS011;52970;46.752;17.108;2022-09-28T07:49:37;4.30;;;2.28;;
13102;SDS011;52970;46.752;17.108;2022-09-28T07:52:02;2.97;;;2.00;;
13102;SDS011;52970;46.752;17.108;2022-09-28T07:54:27;3.15;;;2.08;;
13102;SDS011;52970;46.752;17.108;2022-09-28T07:56:54;2.28;;;2.10;;
13102;SDS011;52970;46.752;17.108;2022-09-28T07:59:19;3.83;;;1.98;;
13102;SDS011;52970;46.752;17.108;2022-09-28T08:01:45;1.90;;;1.80;;
13102;SDS011;52970;46.752;17.108;2022-09-28T08:04:11;3.20;;;2.10;;
13102;SDS011;52970;46.752;17.108;2022-09-28T08:06:36;1.80;;;1.70;;
13102;SDS011;52970;46.752;17.108;2022-09-28T08:09:04;2.50;;;1.90;;
13102;SDS011;52970;46.752;17.108;2022-09-28T08:11:29;2.20;;;2.00;;
13102;SDS011;52970;46.752;17.108;2022-09-28T08:13:54;3.22;;;1.80;;
13102;SDS011;52970;46.752;17.108;2022-09-28T08:16:22;3.30;;;2.00;;
13102;SDS011;52970;46.752;17.108;2022-09-28T08:18:47;2.00;;;1.90;;
13102;SDS011;52970;46.752;17.108;2022-09-28T08:21:13;2.85;;;2.00;;
13102;SDS011;52970;46.752;17.108;2022-09-28T08:23:57;2.67;;;1.73;;
13102;SDS011;52970;46.752;17.108;2022-09-28T08:26:22;2.05;;;1.85;;
13102;SDS011;52970;46.752;17.108;2022-09-28T08:28:48;2.65;;;1.70;;
13102;SDS011;52970;46.752;17.108;2022-09-28T08:31:14;1.90;;;1.80;;
13102;SDS011;52970;46.752;17.108;2022-09-28T08:33:39;2.70;;;1.70;;
13102;SDS011;52970;46.752;17.108;2022-09-28T08:36:06;3.00;;;1.90;;
13102;SDS011;52970;46.752;17.108;2022-09-28T08:38:32;3.65;;;1.67;;
13102;SDS011;52970;46.752;17.108;2022-09-28T08:46:12;2.28;;;1.80;;
13102;SDS011;52970;46.752;17.108;2022-09-28T08:48:44;3.00;;;1.92;;
13102;SDS011;52970;46.752;17.108;2022-09-28T08:59:02;2.17;;;1.35;;
13102;SDS011;52970;46.752;17.108;2022-09-28T09:01:31;4.85;;;1.67;;
13102;SDS011;52970;46.752;17.108;2022-09-28T09:03:57;2.00;;;1.40;;
13102;SDS011;52970;46.752;17.108;2022-09-28T09:06:39;3.03;;;1.70;;
13102;SDS011;52970;46.752;17.108;2022-09-28T09:09:15;2.42;;;1.70;;
13102;SDS011;52970;46.752;17.108;2022-09-28T09:17:11;1.60;;;1.50;;
13102;SDS011;52970;46.752;17.108;2022-09-28T09:22:28;2.25;;;1.50;;
13102;SDS011;52970;46.752;17.108;2022-09-28T09:27:53;1.40;;;1.30;;
13102;SDS011;52970;46.752;17.108;2022-09-28T09:30:20;1.80;;;1.70;;
13102;SDS011;52970;46.752;17.108;2022-09-28T09:48:29;1.55;;;1.30;;
13102;SDS011;52970;46.752;17.108;2022-09-28T09:50:59;1.38;;;1.27;;
13102;SDS011;52970;46.752;17.108;2022-09-28T09:55:54;2.22;;;1.63;;
13102;SDS011;52970;46.752;17.108;2022-09-28T10:00:47;2.15;;;1.27;;
13102;SDS011;52970;46.752;17.108;2022-09-28T10:03:19;1.20;;;1.20;;
13102;SDS011;52970;46.752;17.108;2022-09-28T10:05:47;1.77;;;1.50;;
13102;SDS011;52970;46.752;17.108;2022-09-28T10:08:14;2.15;;;1.30;;
13102;SDS011;52970;46.752;17.108;2022-09-28T10:10:47;1.77;;;1.50;;
13102;SDS011;52970;46.752;17.108;2022-09-28T10:13:13;2.20;;;1.40;;
13102;SDS011;52970;46.752;17.108;2022-09-28T10:15:38;1.83;;;1.40;;
13102;SDS011;52970;46.752;17.108;2022-09-28T10:18:05;1.73;;;1.10;;
13102;SDS011;52970;46.752;17.108;2022-09-28T10:20:36;1.48;;;1.30;;
13102;SDS011;52970;46.752;17.108;2022-09-28T10:23:02;3.13;;;1.10;;
13102;SDS011;52970;46.752;17.108;2022-09-28T10:25:29;1.73;;;1.40;;
13102;SDS011;52970;46.752;17.108;2022-09-28T10:27:55;1.35;;;1.25;;
13102;SDS011;52970;46.752;17.108;2022-09-28T10:30:21;1.30;;;1.20;;
13102;SDS011;52970;46.752;17.108;2022-09-28T10:32:48;1.20;;;1.10;;
13102;SDS011;52970;46.752;17.108;2022-09-28T10:43:24;1.52;;;1.27;;
13102;SDS011;52970;46.752;17.108;2022-09-28T10:48:27;1.10;;;1.10;;
13102;SDS011;52970;46.752;17.108;2022-09-28T10:50:58;1.05;;;1.05;;
13102;SDS011;52970;46.752;17.108;2022-09-28T10:53:24;0.95;;;0.95;;
13102;SDS011;52970;46.752;17.108;2022-09-28T10:58:49;1.08;;;1.08;;
13102;SDS011;52970;46.752;17.108;2022-09-28T11:01:17;1.90;;;1.05;;
13102;SDS011;52970;46.752;17.108;2022-09-28T11:04:02;1.50;;;1.10;;
13102;SDS011;52970;46.752;17.108;2022-09-28T11:06:31;1.00;;;1.00;;
13102;SDS011;52970;46.752;17.108;2022-09-28T11:09:00;2.05;;;1.30;;
13102;SDS011;52970;46.752;17.108;2022-09-28T11:11:26;1.23;;;1.23;;
13102;SDS011;52970;46.752;17.108;2022-09-28T11:13:54;1.20;;;1.20;;
13102;SDS011;52970;46.752;17.108;2022-09-28T11:19:02;1.30;;;1.30;;
13102;SDS011;52970;46.752;17.108;2022-09-28T11:21:28;1.10;;;1.10;;
13102;SDS011;52970;46.752;17.108;2022-09-28T11:24:06;2.50;;;1.33;;
13102;SDS011;52970;46.752;17.108;2022-09-28T11:26:42;1.38;;;1.30;;
13102;SDS011;52970;46.752;17.108;2022-09-28T11:29:21;1.40;;;1.30;;
13102;SDS011;52970;46.752;17.108;2022-09-28T11:31:47;1.10;;;1.05;;
13102;SDS011;52970;46.752;17.108;2022-09-28T11:34:14;1.30;;;1.23;;
13102;SDS011;52970;46.752;17.108;2022-09-28T11:46:59;1.50;;;1.30;;
13102;SDS011;52970;46.752;17.108;2022-09-28T11:49:41;1.33;;;1.10;;
13102;SDS011;52970;46.752;17.108;2022-09-28T11:55:08;1.98;;;1.20;;
13102;SDS011;52970;46.752;17.108;2022-09-28T11:57:37;1.88;;;1.10;;
13102;SDS011;52970;46.752;17.108;2022-09-28T12:00:06;2.40;;;1.13;;
13102;SDS011;52970;46.752;17.108;2022-09-28T12:02:55;2.08;;;1.30;;
13102;SDS011;52970;46.752;17.108;2022-09-28T12:05:24;1.45;;;1.35;;
13102;SDS011;52970;46.752;17.108;2022-09-28T12:10:20;2.20;;;1.60;;
13102;SDS011;52970;46.752;17.108;2022-09-28T12:12:49;1.85;;;1.33;;
13102;SDS011;52970;46.752;17.108;2022-09-28T12:15:18;2.90;;;1.50;;
13102;SDS011;52970;46.752;17.108;2022-09-28T12:18:02;3.40;;;1.75;;
13102;SDS011;52970;46.752;17.108;2022-09-28T12:20:41;2.05;;;1.60;;
13102;SDS011;52970;46.752;17.108;2022-09-28T12:25:41;2.80;;;1.52;;
13102;SDS011;52970;46.752;17.108;2022-09-28T12:30:54;1.13;;;1.13;;
13102;SDS011;52970;46.752;17.108;2022-09-28T12:33:20;1.38;;;0.98;;
13102;SDS011;52970;46.752;17.108;2022-09-28T12:41:04;2.25;;;1.20;;
13102;SDS011;52970;46.752;17.108;2022-09-28T12:46:28;1.13;;;1.13;;
13102;SDS011;52970;46.752;17.108;2022-09-28T12:59:18;1.42;;;1.30;;
13102;SDS011;52970;46.752;17.108;2022-09-28T13:07:02;1.20;;;1.20;;
13102;SDS011;52970;46.752;17.108;2022-09-28T13:09:53;1.20;;;1.10;;
13102;SDS011;52970;46.752;17.108;2022-09-28T13:17:35;2.45;;;1.30;;
13102;SDS011;52970;46.752;17.108;2022-09-28T13:20:20;1.40;;;1.30;;
13102;SDS011;52970;46.752;17.108;2022-09-28T13:25:19;1.13;;;1.02;;
13102;SDS011;52970;46.752;17.108;2022-09-28T13:27:52;2.00;;;1.35;;
13102;SDS011;52970;46.752;17.108;2022-09-28T13:30:19;1.50;;;1.40;;
13102;SDS011;52970;46.752;17.108;2022-09-28T13:32:45;2.00;;;1.77;;
13102;SDS011;52970;46.752;17.108;2022-09-28T13:35:14;2.58;;;1.40;;
13102;SDS011;52970;46.752;17.108;2022-09-28T13:37:40;2.40;;;1.48;;
13102;SDS011;52970;46.752;17.108;2022-09-28T13:40:05;2.45;;;1.40;;
13102;SDS011;52970;46.752;17.108;2022-09-28T13:45:08;2.42;;;1.40;;
13102;SDS011;52970;46.752;17.108;2022-09-28T13:52:56;2.75;;;1.48;;
13102;SDS011;52970;46.752;17.108;2022-09-28T13:55:29;1.83;;;1.60;;
13102;SDS011;52970;46.752;17.108;2022-09-28T13:58:01;1.45;;;1.20;;
13102;SDS011;52970;46.752;17.108;2022-09-28T14:00:29;2.08;;;1.45;;
13102;SDS011;52970;46.752;17.108;2022-09-28T14:05:31;2.20;;;1.48;;
13102;SDS011;52970;46.752;17.108;2022-09-28T14:18:42;4.43;;;3.83;;
13102;SDS011;52970;46.752;17.108;2022-09-28T14:21:18;6.57;;;5.97;;
13102;SDS011;52970;46.752;17.108;2022-09-28T14:23:49;11.55;;;10.45;;
13102;SDS011;52970;46.752;17.108;2022-09-28T14:26:26;8.95;;;6.85;;
13102;SDS011;52970;46.752;17.108;2022-09-28T14:30:04;5.93;;;5.00;;
13102;SDS011;52970;46.752;17.108;2022-09-28T14:31:53;5.10;;;4.63;;
13102;SDS011;52970;46.752;17.108;2022-09-28T14:34:22;4.72;;;3.17;;
13102;SDS011;52970;46.752;17.108;2022-09-28T14:36:49;3.42;;;2.92;;
13102;SDS011;52970;46.752;17.108;2022-09-28T14:39:33;3.63;;;3.33;;
13102;SDS011;52970;46.752;17.108;2022-09-28T14:42:19;4.30;;;3.75;;
13102;SDS011;52970;46.752;17.108;2022-09-28T14:47:35;2.47;;;2.33;;
13102;SDS011;52970;46.752;17.108;2022-09-28T14:50:16;2.03;;;1.83;;
13102;SDS011;52970;46.752;17.108;2022-09-28T14:52:45;2.50;;;2.25;;
13102;SDS011;52970;46.752;17.108;2022-09-28T14:55:13;1.77;;;1.67;;
13102;SDS011;52970;46.752;17.108;2022-09-28T14:57:42;1.73;;;1.63;;
13102;SDS011;52970;46.752;17.108;2022-09-28T15:00:28;2.60;;;1.50;;
13102;SDS011;52970;46.752;17.108;2022-09-28T15:02:58;1.83;;;1.52;;
13102;SDS011;52970;46.752;17.108;2022-09-28T15:05:44;1.60;;;1.50;;
13102;SDS011;52970;46.752;17.108;2022-09-28T15:08:11;2.20;;;2.10;;
13102;SDS011;52970;46.752;17.108;2022-09-28T15:10:37;2.72;;;1.70;;
13102;SDS011;52970;46.752;17.108;2022-09-28T15:13:25;2.90;;;1.50;;
13102;SDS011;52970;46.752;17.108;2022-09-28T15:15:50;1.55;;;1.45;;
13102;SDS011;52970;46.752;17.108;2022-09-28T15:21:00;1.40;;;1.30;;
13102;SDS011;52970;46.752;17.108;2022-09-28T15:25:52;3.13;;;2.10;;
13102;SDS011;52970;46.752;17.108;2022-09-28T15:28:18;12.65;;;10.35;;
13102;SDS011;52970;46.752;17.108;2022-09-28T15:30:46;3.47;;;3.17;;
13102;SDS011;52970;46.752;17.108;2022-09-28T15:33:24;6.05;;;3.97;;
13102;SDS011;52970;46.752;17.108;2022-09-28T15:36:09;2.80;;;2.60;;
13102;SDS011;52970;46.752;17.108;2022-09-28T15:38:37;2.90;;;2.60;;
13102;SDS011;52970;46.752;17.108;2022-09-28T15:41:04;3.20;;;2.88;;
13102;SDS011;52970;46.752;17.108;2022-09-28T15:43:31;3.58;;;2.47;;
13102;SDS011;52970;46.752;17.108;2022-09-28T15:48:38;3.63;;;2.10;;
13102;SDS011;52970;46.752;17.108;2022-09-28T15:51:06;2.50;;;2.30;;
13102;SDS011;52970;46.752;17.108;2022-09-28T15:53:36;2.30;;;2.10;;
13102;SDS011;52970;46.752;17.108;2022-09-28T15:56:05;3.05;;;1.80;;
13102;SDS011;52970;46.752;17.108;2022-09-28T15:58:34;5.20;;;1.98;;
13102;SDS011;52970;46.752;17.108;2022-09-28T16:01:17;2.55;;;2.08;;
13102;SDS011;52970;46.752;17.108;2022-09-28T16:03:43;2.28;;;2.08;;
13102;SDS011;52970;46.752;17.108;2022-09-28T16:06:09;4.60;;;2.00;;
13102;SDS011;52970;46.752;17.108;2022-09-28T16:11:05;6.77;;;2.50;;
13102;SDS011;52970;46.752;17.108;2022-09-28T16:13:31;2.28;;;2.08;;
13102;SDS011;52970;46.752;17.108;2022-09-28T16:15:58;2.20;;;2.00;;
13102;SDS011;52970;46.752;17.108;2022-09-28T16:18:24;5.35;;;2.72;;
13102;SDS011;52970;46.752;17.108;2022-09-28T16:20:51;2.67;;;2.10;;
13102;SDS011;52970;46.752;17.108;2022-09-28T16:23:18;2.40;;;2.20;;
13102;SDS011;52970;46.752;17.108;2022-09-28T16:25:49;4.00;;;2.20;;
13102;SDS011;52970;46.752;17.108;2022-09-28T16:31:05;4.97;;;2.50;;
13102;SDS011;52970;46.752;17.108;2022-09-28T16:33:44;2.40;;;2.20;;
13102;SDS011;52970;46.752;17.108;2022-09-28T16:36:16;3.70;;;2.72;;
13102;SDS011;52970;46.752;17.108;2022-09-28T16:38:45;2.35;;;2.15;;
13102;SDS011;52970;46.752;17.108;2022-09-28T16:41:11;3.00;;;2.50;;
13102;SDS011;52970;46.752;17.108;2022-09-28T16:43:37;2.35;;;2.25;;
13102;SDS011;52970;46.752;17.108;2022-09-28T16:46:07;5.00;;;2.65;;
13102;SDS011;52970;46.752;17.108;2022-09-28T16:48:34;4.55;;;2.92;;
13102;SDS011;52970;46.752;17.108;2022-09-28T16:51:00;2.80;;;2.60;;
13102;SDS011;52970;46.752;17.108;2022-09-28T16:53:26;4.63;;;3.20;;
13102;SDS011;52970;46.752;17.108;2022-09-28T16:56:10;2.80;;;2.60;;
13102;SDS011;52970;46.752;17.108;2022-09-28T16:58:36;5.32;;;4.80;;
13102;SDS011;52970;46.752;17.108;2022-09-28T17:01:03;3.80;;;3.30;;
13102;SDS011;52970;46.752;17.108;2022-09-28T17:03:28;4.03;;;3.63;;
13102;SDS011;52970;46.752;17.108;2022-09-28T17:05:54;4.38;;;3.97;;
13102;SDS011;52970;46.752;17.108;2022-09-28T17:08:20;4.30;;;3.65;;
13102;SDS011;52970;46.752;17.108;2022-09-28T17:10:53;4.50;;;4.10;;
13102;SDS011;52970;46.752;17.108;2022-09-28T17:13:23;4.45;;;4.05;;
13102;SDS011;52970;46.752;17.108;2022-09-28T17:15:59;7.18;;;6.25;;
13102;SDS011;52970;46.752;17.108;2022-09-28T17:18:25;9.38;;;7.10;;
13102;SDS011;52970;46.752;17.108;2022-09-28T17:20:51;7.57;;;6.10;;
13102;SDS011;52970;46.752;17.108;2022-09-28T17:23:19;6.57;;;5.90;;
13102;SDS011;52970;46.752;17.108;2022-09-28T17:25:45;6.60;;;5.95;;
13102;SDS011;52970;46.752;17.108;2022-09-28T17:28:33;6.63;;;5.88;;
13102;SDS011;52970;46.752;17.108;2022-09-28T17:30:56;6.30;;;5.47;;
13102;SDS011;52970;46.752;17.108;2022-09-28T17:33:21;5.40;;;4.85;;
13102;SDS011;52970;46.752;17.108;2022-09-28T17:35:47;5.65;;;5.15;;
13102;SDS011;52970;46.752;17.108;2022-09-28T17:38:14;7.15;;;4.80;;
13102;SDS011;52970;46.752;17.108;2022-09-28T17:40:40;5.20;;;4.72;;
13102;SDS011;52970;46.752;17.108;2022-09-28T17:43:05;6.53;;;4.70;;
13102;SDS011;52970;46.752;17.108;2022-09-28T17:45:31;7.25;;;5.22;;
13102;SDS011;52970;46.752;17.108;2022-09-28T17:47:57;5.18;;;4.68;;
13102;SDS011;52970;46.752;17.108;2022-09-28T17:50:27;4.97;;;4.53;;
13102;SDS011;52970;46.752;17.108;2022-09-28T17:52:54;5.13;;;4.53;;
13102;SDS011;52970;46.752;17.108;2022-09-28T17:55:25;5.82;;;3.55;;
13102;SDS011;52970;46.752;17.108;2022-09-28T17:57:55;4.30;;;3.90;;